createdAt,value
2023-03-17T00:04:34.511Z,60.01
2023-03-17T00:09:38.577Z,60.61
2023-03-17T00:14:46.505Z,60.50
2023-03-17T00:19:47.837Z,60.62
2023-03-17T00:24:49.124Z,61.00
2023-03-17T00:29:50.362Z,61.43
2023-03-17T00:34:53.389Z,61.42
2023-03-17T00:40:57.113Z,61.18
2023-03-17T00:47:18.745Z,61.00
2023-03-17T00:52:44.958Z,61.33
2023-03-17T00:57:47.901Z,61.66
2023-03-17T01:03:48.981Z,61.59
2023-03-17T01:10:16.253Z,62.31
2023-03-17T01:16:37.320Z,62.92
2023-03-17T01:22:58.361Z,63.18
2023-03-17T01:28:20.417Z,63.56
2023-03-17T01:33:21.795Z,64.78
2023-03-17T01:38:24.015Z,64.64
2023-03-17T01:43:28.787Z,64.94
2023-03-17T01:48:36.804Z,65.31
2023-03-17T01:53:39.161Z,65.44
2023-03-17T01:58:41.273Z,65.96
2023-03-17T02:03:44.542Z,66.79
2023-03-17T02:08:45.896Z,67.40
2023-03-17T02:13:48.461Z,67.66
2023-03-17T02:18:50.064Z,68.20
2023-03-17T02:23:51.435Z,67.96
2023-03-17T02:28:53.127Z,67.90
2023-03-17T02:33:54.689Z,67.63
2023-03-17T02:38:57.040Z,67.79
2023-03-17T02:43:58.360Z,67.54
2023-03-17T02:49:01.448Z,67.49
2023-03-17T02:55:02.664Z,67.53
2023-03-17T03:01:23.874Z,67.58
2023-03-17T03:07:44.903Z,67.23
2023-03-17T03:14:05.920Z,67.48
2023-03-17T03:19:27.772Z,67.34
2023-03-17T03:24:29.179Z,67.63
2023-03-17T03:29:30.710Z,67.54
2023-03-17T03:34:32.070Z,67.60
2023-03-17T03:39:33.375Z,67.26
2023-03-17T03:45:34.460Z,67.19
2023-03-17T03:51:55.437Z,66.76
2023-03-17T03:57:56.445Z,66.54
2023-03-17T04:04:17.601Z,66.71
2023-03-17T04:09:59.342Z,67.59
2023-03-17T04:15:00.938Z,67.99
2023-03-17T04:20:03.091Z,68.12
2023-03-17T04:25:05.080Z,67.73
2023-03-17T04:30:06.827Z,67.59
2023-03-17T04:35:13.768Z,67.65
2023-03-17T04:40:16.458Z,67.83
2023-03-17T04:45:17.976Z,67.79
2023-03-17T04:50:19.456Z,67.81
2023-03-17T04:55:20.867Z,67.85
2023-03-17T05:00:22.246Z,68.29
2023-03-17T05:05:23.586Z,68.51
2023-03-17T05:10:25.028Z,68.53
2023-03-17T05:15:26.618Z,68.50
2023-03-17T05:20:28.558Z,68.31
2023-03-17T05:25:30.263Z,68.31
2023-03-17T05:30:32.520Z,68.26
2023-03-17T05:35:34.399Z,68.50
2023-03-17T05:40:36.461Z,68.55
2023-03-17T05:45:38.637Z,68.43
2023-03-17T05:50:41.045Z,68.37
2023-03-17T05:55:42.530Z,69.41
2023-03-17T06:06:57.202Z,68.31
2023-03-17T06:11:58.933Z,66.69
2023-03-17T06:17:00.473Z,64.02
2023-03-17T06:22:02.120Z,61.20
2023-03-17T06:27:03.623Z,56.12
2023-03-17T06:32:19.152Z,55.87
2023-03-17T06:37:21.927Z,55.89
2023-03-17T06:43:22.960Z,55.47
2023-03-17T06:49:53.964Z,52.78
2023-03-17T06:55:15.334Z,52.18
2023-03-17T07:00:17.460Z,50.59
2023-03-17T07:05:18.805Z,49.94
2023-03-17T07:10:20.121Z,48.15
2023-03-17T07:15:21.552Z,42.29
2023-03-17T07:20:22.926Z,42.88
2023-03-17T07:25:24.504Z,44.18
2023-03-17T07:30:26.059Z,42.15
2023-03-17T07:35:28.123Z,39.21
2023-03-17T07:40:30.173Z,33.99
2023-03-17T07:45:32.686Z,35.33
2023-03-17T07:50:35.047Z,32.00
2023-03-17T07:55:38.380Z,30.10
2023-03-17T08:00:39.771Z,30.64
2023-03-17T08:05:41.104Z,29.23
2023-03-17T08:10:42.687Z,30.21
2023-03-17T08:16:53.948Z,29.59
2023-03-17T08:23:15.694Z,30.07
2023-03-17T08:29:40.057Z,29.21
2023-03-17T08:36:01.147Z,30.82
2023-03-17T08:42:22.186Z,30.14
2023-03-17T08:47:23.592Z,30.06
2023-03-17T08:52:25.548Z,29.93
2023-03-17T08:57:27.574Z,30.36
2023-03-17T09:02:28.957Z,29.39
2023-03-17T09:07:30.411Z,29.85
2023-03-17T09:12:34.119Z,30.35
2023-03-17T09:17:35.552Z,30.41
2023-03-17T09:22:37.521Z,30.87
2023-03-17T09:27:38.972Z,31.05
2023-03-17T09:32:40.631Z,30.48
2023-03-17T09:37:42.242Z,30.17
2023-03-17T09:43:08.314Z,29.66
2023-03-17T09:48:28.215Z,29.85
2023-03-17T09:53:45.628Z,30.20
2023-03-17T09:58:52.319Z,30.40
2023-03-17T10:03:53.860Z,31.08
2023-03-17T10:09:05.719Z,30.46
2023-03-17T10:14:34.647Z,30.70
2023-03-17T10:19:41.906Z,31.05
2023-03-17T10:24:48.726Z,31.37
2023-03-17T10:29:50.317Z,30.63
2023-03-17T10:34:51.824Z,29.81
2023-03-17T10:39:56.329Z,29.15
2023-03-17T10:45:03.793Z,26.14
2023-03-17T10:50:20.515Z,25.46
2023-03-17T10:55:25.953Z,26.54
2023-03-17T11:00:33.273Z,26.21
2023-03-17T11:05:34.884Z,25.48
2023-03-17T11:10:41.278Z,25.98
2023-03-17T11:15:57.664Z,26.50
2023-03-17T11:21:09.148Z,26.10
2023-03-17T11:26:47.546Z,25.70
2023-03-17T11:32:11.007Z,25.33
2023-03-17T11:37:39.931Z,26.04
2023-03-17T11:42:54.782Z,25.88
2023-03-17T11:48:17.786Z,25.89
2023-03-17T11:53:36.048Z,25.11
2023-03-17T11:58:43.495Z,24.53
2023-03-17T12:04:08.469Z,25.63
2023-03-17T12:09:24.441Z,24.66
2023-03-17T12:15:34.579Z,24.54
2023-03-17T12:21:37.827Z,25.37
2023-03-17T12:27:31.372Z,24.58
2023-03-17T12:32:49.540Z,25.53
2023-03-17T12:37:51.908Z,25.13
2023-03-17T12:43:30.780Z,25.46
2023-03-17T12:49:13.115Z,24.52
2023-03-17T12:54:26.570Z,24.83
2023-03-17T12:59:30.668Z,25.88
2023-03-17T13:04:37.428Z,25.81
2023-03-17T13:09:53.833Z,25.87
2023-03-17T13:14:57.488Z,26.04
2023-03-17T13:20:08.183Z,26.02
2023-03-17T13:25:31.990Z,26.16
2023-03-17T13:31:09.849Z,25.83
2023-03-17T13:36:20.690Z,26.56
2023-03-17T13:41:40.686Z,26.43
2023-03-17T13:46:47.713Z,25.48
2023-03-17T13:52:00.010Z,25.71
2023-03-17T13:57:22.191Z,26.33
2023-03-17T14:02:28.818Z,26.28
2023-03-17T14:07:42.262Z,27.19
2023-03-17T14:12:58.686Z,26.33
2023-03-17T14:18:18.842Z,25.80
2023-03-17T14:23:21.010Z,25.80
2023-03-17T14:28:28.326Z,26.21
2023-03-17T14:33:33.112Z,25.81
2023-03-17T14:38:36.706Z,26.53
2023-03-17T14:43:38.371Z,26.42
2023-03-17T14:48:42.341Z,25.99
2023-03-17T14:54:44.040Z,26.47
2023-03-17T15:00:35.240Z,27.02
2023-03-17T15:06:30.165Z,26.80
2023-03-17T15:11:42.383Z,26.96
2023-03-17T15:16:50.548Z,27.50
2023-03-17T15:21:52.120Z,27.77
2023-03-17T15:27:19.627Z,27.42
2023-03-17T15:33:20.743Z,27.34
2023-03-17T15:38:42.245Z,28.55
2023-03-17T15:44:53.589Z,28.26
2023-03-17T16:03:48.259Z,27.23
2023-03-17T16:09:18.610Z,27.97
2023-03-17T16:14:24.620Z,28.74
2023-03-17T16:19:27.149Z,28.89
2023-03-17T16:24:28.761Z,29.92
2023-03-17T16:30:30.196Z,30.33
2023-03-17T16:35:54.155Z,30.50
2023-03-17T16:42:08.179Z,31.16
2023-03-17T16:47:29.587Z,31.73
2023-03-17T16:52:30.931Z,32.26
2023-03-17T16:58:32.075Z,32.80
2023-03-17T17:04:53.199Z,32.94
2023-03-17T17:11:14.242Z,33.55
2023-03-17T17:16:39.414Z,33.98
2023-03-17T17:21:43.144Z,34.21
2023-03-17T17:27:44.247Z,34.50
2023-03-17T17:34:05.300Z,34.71
2023-03-17T17:39:36.218Z,35.20
2023-03-17T17:45:32.765Z,35.26
2023-03-17T17:50:34.520Z,35.09
2023-03-17T17:55:36.128Z,35.35
2023-03-17T18:01:37.260Z,35.52
2023-03-17T18:07:58.453Z,35.68
2023-03-17T18:13:20.008Z,35.69
2023-03-17T18:18:21.353Z,35.85
2023-03-17T18:23:23.045Z,36.24
2023-03-17T18:28:24.577Z,36.31
2023-03-17T18:33:53.916Z,36.36
2023-03-17T18:38:56.098Z,36.71
2023-03-17T18:43:57.599Z,37.04
2023-03-17T18:49:58.833Z,37.14
2023-03-17T18:56:20.072Z,37.39
2023-03-17T19:02:35.906Z,37.79
2023-03-17T19:08:37.033Z,37.96
2023-03-17T19:15:00.422Z,38.08
2023-03-17T19:21:21.480Z,38.27
2023-03-17T19:27:42.855Z,38.45
2023-03-17T19:33:04.394Z,38.78
2023-03-17T19:38:07.843Z,38.87
2023-03-17T19:43:09.581Z,39.11
2023-03-17T19:49:10.920Z,39.20
2023-03-17T19:55:32.646Z,39.39
2023-03-17T20:01:54.207Z,39.41
2023-03-17T20:07:17.210Z,39.71
2023-03-17T20:13:18.665Z,39.94
2023-03-17T20:18:40.511Z,40.09
2023-03-17T20:23:42.995Z,40.18
2023-03-17T20:28:44.754Z,40.42
2023-03-17T20:33:47.183Z,40.65
2023-03-17T20:38:49.296Z,40.92
2023-03-17T20:43:51.538Z,40.95
2023-03-17T20:49:52.729Z,41.39
2023-03-17T20:56:16.092Z,41.64
2023-03-17T21:02:37.097Z,41.93
2023-03-17T21:08:58.088Z,42.22
2023-03-17T21:15:19.497Z,42.46
2023-03-17T21:20:41.731Z,42.68
2023-03-17T21:25:43.123Z,43.19
2023-03-17T21:31:44.375Z,43.75
2023-03-17T21:38:06.793Z,44.49
2023-03-17T21:44:26.769Z,45.15
2023-03-17T21:50:48.267Z,45.75
2023-03-17T21:57:10.725Z,46.27
2023-03-17T22:03:32.063Z,46.69
2023-03-17T22:09:53.877Z,47.24
2023-03-17T22:15:17.300Z,47.94
2023-03-17T22:20:39.109Z,48.32
2023-03-17T22:26:35.967Z,48.26
2023-03-17T22:31:37.282Z,48.92
2023-03-17T22:37:18.687Z,49.19
2023-03-17T22:43:36.178Z,49.52
2023-03-17T22:48:37.596Z,49.92
2023-03-17T22:54:39.807Z,50.13
2023-03-17T23:01:00.944Z,50.41
2023-03-17T23:07:22.071Z,50.71
2023-03-17T23:12:59.206Z,51.07
2023-03-17T23:19:04.983Z,51.34
2023-03-17T23:25:25.943Z,51.46
2023-03-17T23:30:47.280Z,52.01
2023-03-17T23:35:49.792Z,52.43
2023-03-17T23:41:50.895Z,53.22
2023-03-17T23:47:12.871Z,52.82
2023-03-17T23:53:13.933Z,52.71
2023-03-17T23:59:35.201Z,52.89
